BIRK/RKV METAR and TAF weather

Enter ICAO airport designator
Station Type Date Time Source
BIRK METAR 2018/12/10 20:00 UTC NOAA

BIRK 102000Z 12034G46KT 4000 RA BR BKN019 OVC030 05/02 Q0992


Station Type Date Time Source
BIRK Decoded METAR 2018/12/10 20:00 UTC NOAA

Reykjavik, Iceland (BIRK) 64-08N 021-54W 61M
Dec 10, 2018 - 03:00 PM EST / 2018.12.10 2000 UTC
Wind: from the ESE (120 degrees) at 39 MPH (34 KT) gusting to 53 MPH (46 KT):0
Visibility: 2 mile(s):0
Sky conditions: overcast
Weather: rain; mist
Temperature: 41 F (5 C)
Dew Point: 35 F (2 C)
Relative Humidity: 80%
Pressure (altimeter): 29.29 in. Hg (0992 hPa)
ob: BIRK 102000Z 12034G46KT 4000 RA BR BKN019 OVC030 05/02 Q0992
cycle: 20

Station Type Date Time Source
BIRK TAF 2018/12/10 21:41 UTC NOAA

TAF BIRK 101933Z 1021/1121 11035G50KT 3500 RA BKN010 OVC020 TX10/1109Z TN05/1021Z
BECMG 1022/1100 10008KT 9999 -DZ SCT015 BKN030
BECMG 1103/1106 09018KT RA BKN013 OVC030
BECMG 1107/1109 14030G42KT
BECMG 1116/1118 18018KT


Example: see airport list